Time;durP1;ratioP1;P1;durP2;ratioP2;P2;SDS_P1;SDS_P2;PMS_P1;PMS_P2;Temp;Humidity;BMP_temperature;BMP_pressure;BME280_temperature;BME280_humidity;BME280_pressure;Samples;Min_cycle;Max_cycle;Signal;HPM_P1;HPM_P2
2021/07/22 00:02:22;;;;;;;11.45;8.02;;;;;;;20.22;78.50;98376.38;5090798;28;20023;-82
2021/07/22 00:04:48;;;;;;;15.63;9.15;;;;;;;20.44;78.10;98365.94;5089546;28;20028;-81
2021/07/22 00:07:13;;;;;;;16.83;9.57;;;;;;;20.30;78.32;98357.97;5089857;28;20425;-82
2021/07/22 00:09:39;;;;;;;10.25;8.07;;;;;;;20.32;77.76;98364.00;5090647;28;20024;-81
2021/07/22 00:12:09;;;;;;;10.65;8.48;;;;;;;20.32;77.98;98360.41;5089623;28;20020;-82
2021/07/22 00:14:35;;;;;;;12.88;9.57;;;;;;;20.23;77.94;98361.34;5090248;28;20127;-83
2021/07/22 00:17:04;;;;;;;10.77;8.57;;;;;;;20.26;75.40;98354.28;5089715;28;20116;-82
2021/07/22 00:19:31;;;;;;;14.07;7.97;;;;;;;20.25;75.45;98359.00;5090160;28;20024;-81
2021/07/22 00:21:57;;;;;;;14.10;8.35;;;;;;;20.18;75.68;98363.50;5090254;28;20392;-82
2021/07/22 00:24:23;;;;;;;16.42;9.63;;;;;;;20.11;74.65;98361.31;5091246;28;20020;-81
2021/07/22 00:26:49;;;;;;;9.20;7.20;;;;;;;20.17;74.33;98354.34;5090265;28;20028;-83
2021/07/22 00:29:14;;;;;;;11.45;8.45;;;;;;;20.02;75.04;98360.63;5091224;28;20032;-82
2021/07/22 00:31:39;;;;;;;15.65;9.45;;;;;;;20.06;75.39;98356.00;5093339;28;20365;-87
2021/07/22 00:34:05;;;;;;;14.52;8.07;;;;;;;19.99;74.28;98352.97;5091699;28;20424;-83
2021/07/22 00:36:30;;;;;;;17.73;9.38;;;;;;;19.93;74.37;98365.47;5091940;28;20032;-86
2021/07/22 00:38:56;;;;;;;11.80;8.80;;;;;;;19.86;74.64;98361.69;5091454;28;20493;-82
2021/07/22 00:41:21;;;;;;;12.82;8.27;;;;;;;19.97;73.98;98366.41;5090328;28;20180;-84
2021/07/22 00:43:47;;;;;;;13.93;7.95;;;;;;;19.89;75.17;98361.75;5091809;28;20062;-84
2021/07/22 00:46:12;;;;;;;16.27;9.35;;;;;;;19.85;75.54;98351.72;5091281;28;20027;-86
2021/07/22 00:48:38;;;;;;;19.30;8.05;;;;;;;19.89;75.49;98356.22;5090854;28;20032;-85
2021/07/22 00:51:04;;;;;;;12.80;8.07;;;;;;;19.85;75.13;98354.50;5090575;28;20031;-86
2021/07/22 00:53:29;;;;;;;12.98;8.10;;;;;;;19.86;76.13;98354.13;5091271;28;20028;-83
2021/07/22 00:55:55;;;;;;;18.23;9.20;;;;;;;19.85;75.64;98343.38;5089460;28;20031;-84
2021/07/22 00:58:20;;;;;;;11.30;8.18;;;;;;;20.05;75.40;98348.81;5089381;28;20024;-83
2021/07/22 01:00:46;;;;;;;11.60;9.05;;;;;;;20.03;75.24;98342.81;5090004;28;20024;-82
2021/07/22 01:03:11;;;;;;;10.20;7.60;;;;;;;20.10;74.85;98362.50;5088020;28;20028;-80
2021/07/22 01:05:37;;;;;;;14.15;8.57;;;;;;;19.98;74.99;98358.91;5088215;28;20035;-79
2021/07/22 01:08:06;;;;;;;12.05;8.25;;;;;;;19.86;75.39;98345.78;5088278;28;20028;-79
2021/07/22 01:10:31;;;;;;;12.50;8.88;;;;;;;19.91;75.91;98347.56;5088777;28;20101;-84
2021/07/22 01:12:57;;;;;;;13.88;9.38;;;;;;;19.89;76.18;98345.09;5089536;28;20473;-79
2021/07/22 01:15:22;;;;;;;11.75;8.30;;;;;;;20.05;75.13;98348.00;5088803;28;20035;-79
2021/07/22 01:17:50;;;;;;;10.93;8.20;;;;;;;20.10;76.34;98362.50;5090646;28;20028;-81
2021/07/22 01:20:23;;;;;;;10.85;8.60;;;;;;;20.18;77.28;98358.78;5092740;28;20036;-79
2021/07/22 01:22:51;;;;;;;12.25;8.82;;;;;;;20.15;78.03;98342.78;5094195;28;20043;-82
2021/07/22 01:25:19;;;;;;;11.00;7.60;;;;;;;20.20;78.84;98348.09;5093023;28;20020;-82
2021/07/22 01:27:44;;;;;;;12.18;8.45;;;;;;;20.24;79.56;98342.66;5093829;28;20123;-83
2021/07/22 01:30:12;;;;;;;13.95;8.43;;;;;;;20.44;76.80;98349.28;5093383;28;20106;-84
2021/07/22 01:32:38;;;;;;;13.45;9.55;;;;;;;20.38;79.02;98345.13;5099984;28;20023;-84
2021/07/22 01:35:05;;;;;;;12.80;9.57;;;;;;;20.23;79.66;98339.09;5099963;28;20040;-83
2021/07/22 01:37:30;;;;;;;11.02;8.55;;;;;;;20.21;79.98;98357.25;5094407;28;20032;-83
2021/07/22 01:39:56;;;;;;;14.27;9.32;;;;;;;20.00;80.41;98351.03;5093210;28;20028;-81
2021/07/22 01:42:21;;;;;;;11.75;8.65;;;;;;;19.99;81.44;98354.94;5092941;28;20046;-81
2021/07/22 01:44:47;;;;;;;13.60;9.85;;;;;;;19.88;82.46;98351.84;5093896;28;20034;-83
2021/07/22 01:47:12;;;;;;;10.70;9.13;;;;;;;19.89;80.72;98350.66;5095767;28;20035;-84
2021/07/22 01:49:38;;;;;;;12.48;8.05;;;;;;;20.09;80.82;98338.63;5095525;28;20020;-84
2021/07/22 01:52:05;;;;;;;14.18;8.73;;;;;;;20.05;81.31;98343.25;5094337;28;20523;-83
2021/07/22 01:54:31;;;;;;;13.73;9.30;;;;;;;20.01;80.08;98345.13;5094653;28;20031;-79
2021/07/22 01:56:57;;;;;;;11.02;7.45;;;;;;;19.88;80.96;98337.13;5093812;28;20028;-83
2021/07/22 01:59:24;;;;;;;11.23;8.75;;;;;;;19.87;80.81;98336.31;5092392;28;20031;-82
2021/07/22 02:01:49;;;;;;;9.93;7.95;;;;;;;19.87;80.91;98341.06;5093166;28;20036;-82
2021/07/22 02:04:15;;;;;;;11.25;9.02;;;;;;;19.78;81.39;98347.53;5093873;28;20035;-84
2021/07/22 02:06:40;;;;;;;15.57;8.73;;;;;;;19.67;82.40;98337.25;5092463;28;20039;-81
2021/07/22 02:09:06;;;;;;;10.57;8.73;;;;;;;19.73;81.19;98330.31;5093791;28;20039;-81
2021/07/22 02:11:31;;;;;;;11.02;8.63;;;;;;;19.84;80.69;98331.47;5094038;28;20044;-83
2021/07/22 02:13:57;;;;;;;14.95;8.77;;;;;;;19.74;82.31;98341.06;5093833;28;20028;-82
2021/07/22 02:16:22;;;;;;;10.05;8.63;;;;;;;19.54;82.82;98336.41;5093090;28;20038;-84
2021/07/22 02:18:48;;;;;;;12.70;9.75;;;;;;;19.43;83.62;98331.63;5092127;28;20028;-82
2021/07/22 02:21:13;;;;;;;15.13;9.02;;;;;;;19.35;83.52;98335.31;5092126;28;20053;-82
2021/07/22 02:23:39;;;;;;;13.82;9.25;;;;;;;19.49;83.20;98338.59;5094099;28;20028;-81
2021/07/22 02:26:08;;;;;;;13.63;8.38;;;;;;;19.39;83.63;98352.91;5092410;28;20032;-83
2021/07/22 02:28:34;;;;;;;12.05;9.27;;;;;;;19.27;84.59;98346.13;5093550;28;20032;-83
2021/07/22 02:31:01;;;;;;;10.30;8.77;;;;;;;19.24;83.53;98346.81;5092519;28;20025;-85
2021/07/22 02:33:26;;;;;;;14.82;9.57;;;;;;;19.15;84.03;98346.09;5093225;28;20064;-84
2021/07/22 02:35:52;;;;;;;13.00;9.45;;;;;;;19.20;84.92;98362.53;5092656;28;20067;-84
2021/07/22 02:38:18;;;;;;;11.30;8.88;;;;;;;19.06;86.50;98361.22;5093748;28;20400;-83
2021/07/22 02:40:44;;;;;;;13.20;8.68;;;;;;;19.02;86.78;98365.81;5093994;28;20032;-84
2021/07/22 02:43:11;;;;;;;12.40;9.38;;;;;;;19.18;85.76;98358.47;5092687;28;20032;-84
2021/07/22 02:45:37;;;;;;;10.82;8.43;;;;;;;19.25;84.33;98364.28;5092613;28;20024;-83
2021/07/22 02:48:03;;;;;;;12.88;9.43;;;;;;;19.34;84.41;98369.75;5092280;28;20035;-84
2021/07/22 02:50:28;;;;;;;13.45;9.90;;;;;;;19.34;84.69;98372.50;5091631;28;20020;-83
2021/07/22 02:52:54;;;;;;;13.75;9.23;;;;;;;19.15;84.85;98365.53;5091127;28;20028;-83
2021/07/22 02:55:19;;;;;;;11.65;8.80;;;;;;;19.25;83.92;98378.16;5092307;28;20032;-82
2021/07/22 02:57:44;;;;;;;13.45;8.48;;;;;;;19.19;84.23;98371.19;5090911;28;20024;-81
2021/07/22 03:00:10;;;;;;;13.82;9.13;;;;;;;19.07;85.79;98380.28;5092581;28;20079;-80
2021/07/22 03:02:36;;;;;;;10.90;8.55;;;;;;;19.02;86.02;98365.81;5091180;28;20450;-80
2021/07/22 03:05:01;;;;;;;15.25;9.48;;;;;;;18.95;86.18;98376.66;5090772;28;20028;-79
2021/07/22 03:07:26;;;;;;;13.65;9.00;;;;;;;18.90;86.19;98380.44;5090680;28;20031;-80
2021/07/22 03:09:52;;;;;;;12.55;8.50;;;;;;;18.95;86.48;98383.00;5090538;28;20113;-80
2021/07/22 03:12:17;;;;;;;16.75;9.43;;;;;;;19.08;85.31;98373.56;5092081;28;20025;-79
2021/07/22 03:14:43;;;;;;;11.23;8.93;;;;;;;19.01;85.28;98369.75;5092122;28;20032;-83
2021/07/22 03:17:08;;;;;;;11.88;9.27;;;;;;;18.80;86.24;98377.25;5090106;28;20487;-80
2021/07/22 03:19:34;;;;;;;11.68;7.85;;;;;;;18.81;86.33;98388.00;5091631;28;20040;-82
2021/07/22 03:21:59;;;;;;;14.30;8.57;;;;;;;18.68;86.37;98375.22;5093639;28;20111;-79
2021/07/22 03:24:27;;;;;;;12.52;9.65;;;;;;;18.79;85.85;98390.31;5090513;28;20028;-79
2021/07/22 03:26:52;;;;;;;11.10;8.90;;;;;;;18.78;85.49;98399.78;5090322;28;20016;-79
2021/07/22 03:29:18;;;;;;;11.77;8.52;;;;;;;18.69;86.13;98383.22;5091314;28;20058;-80
2021/07/22 03:31:44;;;;;;;14.32;8.90;;;;;;;18.69;84.65;98385.19;5090660;28;20490;-80
2021/07/22 03:34:09;;;;;;;11.48;8.85;;;;;;;18.48;84.86;98378.78;5090342;28;20035;-83
2021/07/22 03:36:35;;;;;;;14.60;9.73;;;;;;;18.57;85.01;98382.34;5092486;28;20034;-86
2021/07/22 03:39:00;;;;;;;13.07;8.77;;;;;;;18.66;85.13;98385.84;5091979;28;20035;-83
2021/07/22 03:41:26;;;;;;;11.27;8.48;;;;;;;18.62;84.75;98380.16;5092061;28;20050;-82
2021/07/22 03:43:52;;;;;;;12.38;8.50;;;;;;;18.75;85.17;98389.38;5090276;28;20469;-83
2021/07/22 03:46:18;;;;;;;11.65;8.68;;;;;;;18.68;84.40;98378.81;5068796;28;20472;-82
2021/07/22 03:48:44;;;;;;;11.23;8.68;;;;;;;18.77;84.73;98387.06;5083294;28;20118;-80
2021/07/22 03:51:10;;;;;;;11.40;8.77;;;;;;;18.84;84.78;98397.59;5095493;28;20107;-82
2021/07/22 03:53:35;;;;;;;10.48;8.27;;;;;;;18.52;86.93;98391.66;5075843;28;20060;-80
2021/07/22 03:56:02;;;;;;;11.05;9.93;;;;;;;18.36;87.23;98381.44;5071214;28;20033;-80
2021/07/22 03:58:28;;;;;;;12.43;8.73;;;;;;;18.47;86.69;98393.78;5069227;28;20028;-81
2021/07/22 04:00:54;;;;;;;11.82;8.68;;;;;;;18.44;87.68;98394.44;5069552;28;20028;-80
2021/07/22 04:03:20;;;;;;;11.68;9.40;;;;;;;18.50;87.34;98395.91;5080984;28;20111;-81
2021/07/22 04:05:46;;;;;;;11.63;8.55;;;;;;;18.79;84.93;98389.50;5090570;28;20028;-79
2021/07/22 04:08:11;;;;;;;13.15;8.55;;;;;;;18.73;84.39;98391.69;5089000;28;20028;-79
2021/07/22 04:10:36;;;;;;;12.52;9.25;;;;;;;18.71;84.06;98392.00;5089438;28;20081;-79
2021/07/22 04:13:02;;;;;;;15.05;9.43;;;;;;;18.66;84.44;98400.53;5090262;28;20525;-80
2021/07/22 04:15:29;;;;;;;10.45;8.43;;;;;;;18.96;83.58;98406.81;5089063;28;20031;-80
2021/07/22 04:17:55;;;;;;;10.30;7.70;;;;;;;19.16;82.02;98410.72;5088945;28;20032;-81
2021/07/22 04:20:22;;;;;;;10.25;7.90;;;;;;;18.90;83.78;98413.72;5088819;28;20476;-84
2021/07/22 04:22:49;;;;;;;15.35;8.88;;;;;;;18.89;83.39;98398.22;5089255;28;20032;-79
2021/07/22 04:25:15;;;;;;;14.55;8.07;;;;;;;18.86;83.08;98407.19;5089128;28;20018;-81
2021/07/22 04:27:41;;;;;;;10.88;7.47;;;;;;;18.86;82.65;98409.97;5089236;28;20035;-83
2021/07/22 04:30:07;;;;;;;11.13;8.60;;;;;;;18.97;81.51;98402.88;5089246;28;20024;-83
2021/07/22 04:32:32;;;;;;;15.68;9.68;;;;;;;19.04;81.16;98392.06;5090009;28;20418;-83
2021/07/22 04:34:58;;;;;;;11.85;9.13;;;;;;;19.15;80.90;98418.22;5090220;28;20496;-84
2021/07/22 04:37:23;;;;;;;9.48;7.70;;;;;;;19.06;80.99;98406.41;5102777;28;20091;-85
2021/07/22 04:39:49;;;;;;;13.48;7.45;;;;;;;19.24;81.01;98405.09;5093970;28;20016;-87
2021/07/22 04:42:14;;;;;;;12.43;7.53;;;;;;;19.09;80.91;98400.16;5092184;28;20124;-87
2021/07/22 04:44:39;;;;;;;14.52;8.30;;;;;;;19.14;80.75;98413.81;5097013;28;20070;-86
2021/07/22 04:47:05;;;;;;;12.52;8.48;;;;;;;19.06;81.07;98402.81;5094041;28;20020;-86
2021/07/22 04:49:31;;;;;;;12.15;8.57;;;;;;;19.08;81.23;98412.41;5103396;28;20024;-88
2021/07/22 04:51:59;;;;;;;9.48;7.65;;;;;;;18.90;82.11;98410.94;5092915;28;20059;-88
2021/07/22 04:54:25;;;;;;;15.20;8.63;;;;;;;19.25;79.85;98417.81;5093370;28;20035;-81
2021/07/22 04:56:51;;;;;;;15.48;8.18;;;;;;;19.15;80.58;98418.22;5095218;28;20036;-87
2021/07/22 04:59:16;;;;;;;12.38;9.30;;;;;;;19.09;80.84;98422.34;5093006;28;20024;-87
2021/07/22 05:01:42;;;;;;;11.85;8.40;;;;;;;19.07;81.16;98412.75;5092277;28;20024;-86
2021/07/22 05:04:07;;;;;;;14.60;9.23;;;;;;;19.39;78.24;98420.28;5096197;28;20083;-88
2021/07/22 05:06:33;;;;;;;11.40;7.88;;;;;;;19.59;76.99;98430.56;5093028;28;20104;-85
2021/07/22 05:09:02;;;;;;;11.93;8.73;;;;;;;20.00;76.02;98435.16;5092595;28;20034;-86
2021/07/22 05:11:27;;;;;;;13.02;8.80;;;;;;;20.32;75.26;98435.44;5100764;28;20438;-89
2021/07/22 05:13:53;;;;;;;10.68;7.95;;;;;;;20.27;76.02;98434.50;5094438;28;20027;-87
2021/07/22 05:16:22;;;;;;;12.02;8.88;;;;;;;20.27;76.61;98436.47;5093801;28;20036;-85
2021/07/22 05:18:50;;;;;;;15.05;8.82;;;;;;;20.41;75.90;98427.78;5093632;28;20085;-86
2021/07/22 05:21:15;;;;;;;14.45;9.07;;;;;;;20.88;73.12;98417.78;5092989;28;20031;-87
2021/07/22 05:23:41;;;;;;;12.05;8.45;;;;;;;21.38;70.89;98420.06;5093266;28;20024;-87
2021/07/22 05:26:10;;;;;;;11.80;8.55;;;;;;;21.12;70.12;98419.69;5094072;28;20016;-87
2021/07/22 05:28:39;;;;;;;10.98;8.02;;;;;;;20.87;71.56;98418.91;5094797;28;20036;-87
2021/07/22 05:31:11;;;;;;;14.07;8.80;;;;;;;20.90;71.37;98423.78;5095513;28;20031;-82
2021/07/22 05:33:40;;;;;;;12.18;6.75;;;;;;;20.72;71.42;98419.66;5095392;28;20043;-87
2021/07/22 05:36:09;;;;;;;10.27;8.15;;;;;;;20.97;70.88;98423.19;5096194;28;20052;-88
2021/07/22 05:38:36;;;;;;;13.68;8.13;;;;;;;20.84;70.94;98422.41;5103310;28;20035;-88
2021/07/22 05:41:03;;;;;;;10.02;8.27;;;;;;;20.65;71.85;98425.00;5106635;28;20020;-86
2021/07/22 05:43:29;;;;;;;17.63;9.48;;;;;;;20.26;73.42;98427.34;5099737;28;20311;-86
2021/07/22 05:45:55;;;;;;;14.15;8.73;;;;;;;20.19;73.88;98427.06;5093920;28;20024;-83
2021/07/22 05:48:21;;;;;;;12.45;8.48;;;;;;;20.53;72.70;98438.91;5091670;28;20035;-86
2021/07/22 05:50:47;;;;;;;10.38;8.20;;;;;;;21.20;70.37;98427.91;5100001;28;20032;-88
2021/07/22 05:53:14;;;;;;;15.07;9.07;;;;;;;21.19;69.65;98428.25;5096328;28;20016;-88
2021/07/22 05:55:39;;;;;;;11.27;8.48;;;;;;;21.35;69.72;98431.91;5112905;28;20486;-85
2021/07/22 05:58:05;;;;;;;13.15;9.07;;;;;;;21.51;68.30;98432.78;5112699;28;20055;-87
2021/07/22 06:00:30;;;;;;;12.75;8.80;;;;;;;21.23;69.27;98431.97;5115168;28;20023;-83
2021/07/22 06:02:56;;;;;;;10.02;8.20;;;;;;;21.99;66.43;98437.25;5114186;28;20028;-87
2021/07/22 06:05:21;;;;;;;11.45;8.68;;;;;;;22.69;64.72;98437.44;5118017;28;20464;-88
2021/07/22 06:07:47;;;;;;;9.65;7.88;;;;;;;22.70;65.50;98433.50;5130121;28;20027;-86
2021/07/22 06:10:13;;;;;;;11.00;8.80;;;;;;;22.54;65.45;98427.09;5118829;28;20023;-86
2021/07/22 06:12:42;;;;;;;11.82;8.00;;;;;;;22.60;64.62;98425.66;5117744;28;20076;-79
2021/07/22 06:15:09;;;;;;;15.15;7.97;;;;;;;23.41;62.65;98433.91;5101372;28;20035;-77
2021/07/22 06:17:36;;;;;;;11.27;8.27;;;;;;;23.67;61.04;98424.03;5076126;28;20035;-80
2021/07/22 06:20:03;;;;;;;12.05;8.88;;;;;;;23.16;61.95;98418.56;5091884;28;20036;-78
2021/07/22 06:22:28;;;;;;;12.07;7.57;;;;;;;23.12;63.02;98428.06;5090812;28;20021;-79
2021/07/22 06:24:53;;;;;;;12.85;8.20;;;;;;;22.99;62.52;98426.56;5092096;28;20035;-81
2021/07/22 06:27:19;;;;;;;12.15;8.27;;;;;;;22.98;61.39;98420.19;5089839;28;20051;-78
2021/07/22 06:29:44;;;;;;;11.30;8.65;;;;;;;23.51;60.56;98429.69;5092496;28;20561;-77
2021/07/22 06:32:09;;;;;;;17.48;9.02;;;;;;;23.05;62.10;98423.13;5092846;28;20047;-79
2021/07/22 06:34:35;;;;;;;12.75;8.98;;;;;;;23.79;60.21;98435.03;5092210;28;20044;-79
2021/07/22 06:37:00;;;;;;;13.43;9.65;;;;;;;23.24;59.56;98430.72;5092380;28;20115;-80
2021/07/22 06:39:26;;;;;;;10.95;8.35;;;;;;;23.58;59.14;98424.25;5092374;28;20118;-78
2021/07/22 06:41:58;;;;;;;10.20;8.90;;;;;;;23.39;58.89;98419.50;5073280;28;20040;-76
2021/07/22 06:44:24;;;;;;;11.20;9.45;;;;;;;23.55;59.04;98419.41;5091429;28;20065;-79
2021/07/22 06:46:49;;;;;;;16.40;9.98;;;;;;;23.89;57.42;98426.03;5091621;28;20603;-80
2021/07/22 06:49:15;;;;;;;10.30;8.40;;;;;;;23.76;57.15;98416.22;5091840;28;20016;-76
2021/07/22 06:51:43;;;;;;;12.57;8.98;;;;;;;23.89;56.99;98423.25;5091978;28;20035;-77
2021/07/22 06:54:09;;;;;;;15.27;9.23;;;;;;;23.65;58.24;98418.00;5090183;28;20024;-78
2021/07/22 06:56:35;;;;;;;13.50;9.15;;;;;;;23.14;58.88;98420.94;5092084;28;20016;-76
2021/07/22 06:59:00;;;;;;;15.60;9.52;;;;;;;23.50;58.70;98421.69;5093413;28;20489;-77
2021/07/22 07:01:26;;;;;;;14.88;7.57;;;;;;;23.94;56.37;98415.34;5092750;28;20028;-77
2021/07/22 07:03:51;;;;;;;11.02;8.00;;;;;;;23.23;57.27;98409.53;5091337;28;20020;-78
2021/07/22 07:06:17;;;;;;;11.63;7.97;;;;;;;23.15;58.18;98416.94;5092260;28;20423;-79
2021/07/22 07:08:42;;;;;;;14.85;9.35;;;;;;;23.27;57.52;98419.63;5091777;28;20027;-78
2021/07/22 07:11:08;;;;;;;14.00;8.07;;;;;;;23.56;56.26;98421.00;5089923;28;20392;-77
2021/07/22 07:13:34;;;;;;;11.48;7.03;;;;;;;24.33;54.41;98424.47;5091776;28;20032;-76
2021/07/22 07:16:02;;;;;;;10.23;7.20;;;;;;;24.77;52.64;98412.75;5089358;28;20377;-76
2021/07/22 07:18:27;;;;;;;9.35;7.00;;;;;;;25.11;51.33;98406.06;5091520;28;20146;-79
2021/07/22 07:20:53;;;;;;;12.55;7.47;;;;;;;25.05;52.40;98410.38;5091953;28;20040;-77
2021/07/22 07:23:18;;;;;;;15.40;7.90;;;;;;;25.16;51.89;98410.50;5091305;28;20161;-78
2021/07/22 07:25:44;;;;;;;11.00;7.63;;;;;;;24.85;51.93;98420.09;5091873;28;20074;-79
2021/07/22 07:28:09;;;;;;;11.10;6.97;;;;;;;23.81;51.73;98411.13;5091923;28;20552;-75
2021/07/22 07:30:34;;;;;;;9.40;6.72;;;;;;;23.67;53.61;98419.25;5091373;28;20036;-76
2021/07/22 07:33:00;;;;;;;12.73;6.88;;;;;;;24.22;51.19;98414.25;5090456;28;20563;-77
2021/07/22 07:35:26;;;;;;;9.90;6.82;;;;;;;23.53;52.99;98416.16;5090972;28;20048;-76
2021/07/22 07:37:51;;;;;;;10.02;6.32;;;;;;;23.18;54.39;98409.84;5090600;28;20032;-77
2021/07/22 07:40:17;;;;;;;11.27;6.35;;;;;;;23.44;52.99;98404.41;5089591;28;20028;-76
2021/07/22 07:42:43;;;;;;;13.98;6.78;;;;;;;23.52;51.44;98402.59;5089730;28;20146;-75
2021/07/22 07:45:09;;;;;;;8.15;5.97;;;;;;;23.54;52.62;98411.38;5089192;28;20028;-75
2021/07/22 07:47:35;;;;;;;9.40;6.43;;;;;;;23.73;53.11;98409.38;5091038;28;20028;-77
2021/07/22 07:50:00;;;;;;;9.88;6.35;;;;;;;24.23;52.46;98413.91;5089690;28;20515;-77
2021/07/22 07:52:28;;;;;;;10.90;7.18;;;;;;;24.18;51.36;98405.84;5091488;28;20490;-77
2021/07/22 07:54:54;;;;;;;7.63;5.95;;;;;;;23.82;51.92;98409.13;5089271;28;20024;-75
2021/07/22 07:57:19;;;;;;;13.43;6.63;;;;;;;23.80;52.07;98397.53;5090792;28;20039;-77
2021/07/22 07:59:46;;;;;;;9.90;7.10;;;;;;;23.79;52.39;98395.91;5089617;28;20787;-76
2021/07/22 08:02:16;;;;;;;9.38;7.35;;;;;;;23.81;52.43;98396.34;5089605;28;20033;-78
2021/07/22 08:04:41;;;;;;;7.78;6.32;;;;;;;24.06;51.52;98405.97;5091101;28;20030;-76
2021/07/22 08:07:07;;;;;;;9.70;6.90;;;;;;;23.99;51.90;98398.25;5090280;28;20400;-76
2021/07/22 08:09:32;;;;;;;8.07;6.32;;;;;;;24.17;51.51;98401.41;5088681;28;20123;-75
2021/07/22 08:11:58;;;;;;;13.25;7.72;;;;;;;25.09;49.69;98402.03;5090830;28;20031;-75
2021/07/22 08:14:24;;;;;;;10.75;6.38;;;;;;;25.00;49.59;98393.88;5090816;28;20028;-76
2021/07/22 08:16:49;;;;;;;10.10;5.82;;;;;;;24.68;48.75;98412.22;5090425;28;20020;-75
2021/07/22 08:19:15;;;;;;;6.68;5.38;;;;;;;24.55;49.48;98413.59;5090948;28;20043;-75
2021/07/22 08:21:40;;;;;;;9.20;6.10;;;;;;;25.06;48.04;98400.78;5096406;28;20038;-75
2021/07/22 08:24:06;;;;;;;8.15;6.35;;;;;;;25.21;47.61;98405.41;5096047;28;20028;-79
2021/07/22 08:26:31;;;;;;;11.25;5.40;;;;;;;25.68;46.86;98401.16;5090753;28;20024;-76
2021/07/22 08:28:58;;;;;;;10.30;6.25;;;;;;;26.16;45.50;98416.88;5083912;28;20028;-80
2021/07/22 08:31:23;;;;;;;7.25;5.57;;;;;;;25.94;46.83;98404.63;5079684;28;20097;-80
2021/07/22 08:33:50;;;;;;;7.57;6.18;;;;;;;25.30;47.51;98414.31;5069067;28;20040;-77
2021/07/22 08:36:16;;;;;;;7.65;5.32;;;;;;;24.81;47.05;98413.63;5070042;28;20401;-78
2021/07/22 08:38:41;;;;;;;9.05;5.43;;;;;;;25.01;47.52;98407.53;5068382;28;20111;-77
2021/07/22 08:41:07;;;;;;;7.22;5.72;;;;;;;25.93;46.78;98414.25;5069283;28;20071;-77
2021/07/22 08:43:37;;;;;;;12.23;6.18;;;;;;;26.49;44.93;98416.78;5069011;28;20017;-79
2021/07/22 08:46:05;;;;;;;8.48;6.10;;;;;;;27.27;41.72;98416.47;5070235;28;20025;-77
2021/07/22 08:48:31;;;;;;;8.18;5.97;;;;;;;27.22;42.11;98414.06;5090108;28;20024;-76
2021/07/22 08:50:57;;;;;;;7.70;6.50;;;;;;;26.88;43.13;98425.50;5090048;28;20068;-77
2021/07/22 08:53:23;;;;;;;8.70;5.85;;;;;;;25.56;45.60;98411.44;5090482;28;20101;-78
2021/07/22 08:55:49;;;;;;;8.70;6.75;;;;;;;24.98;46.68;98418.66;5088581;28;20430;-82
2021/07/22 08:58:14;;;;;;;7.30;5.80;;;;;;;25.49;45.72;98416.16;5089588;28;20060;-79
2021/07/22 09:00:42;;;;;;;6.78;5.43;;;;;;;25.31;44.19;98415.13;5089999;28;20056;-79
2021/07/22 09:03:12;;;;;;;6.90;5.65;;;;;;;26.35;42.39;98413.03;5088992;28;20028;-78
2021/07/22 09:05:38;;;;;;;8.15;5.65;;;;;;;26.46;42.42;98416.75;5090250;28;20024;-78
2021/07/22 09:08:03;;;;;;;7.57;5.75;;;;;;;25.12;44.05;98413.28;5089668;28;20410;-79
2021/07/22 09:10:29;;;;;;;9.48;5.38;;;;;;;24.97;43.11;98417.03;5088375;28;20020;-79
2021/07/22 09:12:54;;;;;;;7.95;5.28;;;;;;;25.42;43.04;98411.25;5089532;28;20411;-78
2021/07/22 09:15:26;;;;;;;5.88;5.10;;;;;;;25.46;42.29;98420.50;5088117;28;20035;-77
2021/07/22 09:17:52;;;;;;;9.00;5.50;;;;;;;25.01;44.10;98406.72;5089709;28;20028;-74
2021/07/22 09:20:31;;;;;;;8.70;5.43;;;;;;;25.73;43.51;98412.03;5090946;28;20067;-77
2021/07/22 09:22:59;;;;;;;6.93;4.72;;;;;;;25.83;44.28;98408.53;5092548;28;20031;-76
2021/07/22 09:25:45;;;;;;;6.28;5.35;;;;;;;25.50;44.80;98410.16;5071443;28;20086;-75
2021/07/22 09:28:25;;;;;;;6.68;4.85;;;;;;;25.55;43.70;98407.03;5071018;28;20123;-78
2021/07/22 09:30:54;;;;;;;6.57;5.88;;;;;;;26.48;42.70;98401.13;5077747;28;20071;-81
2021/07/22 09:33:43;;;;;;;8.60;4.95;;;;;;;27.36;41.49;98398.06;5107835;28;20440;-79
2021/07/22 09:36:18;;;;;;;7.80;5.18;;;;;;;26.99;40.93;98403.09;5103687;28;20055;-80
2021/07/22 09:38:43;;;;;;;6.90;5.68;;;;;;;26.63;41.47;98397.22;5095152;28;20028;-77
2021/07/22 09:41:18;;;;;;;7.68;6.05;;;;;;;27.36;40.21;98392.44;5093120;28;20034;-78
2021/07/22 09:43:43;;;;;;;8.35;5.45;;;;;;;26.29;42.01;98381.72;5092818;28;20034;-79
2021/07/22 09:46:09;;;;;;;8.93;5.43;;;;;;;26.49;41.77;98382.28;5092638;28;20119;-77
2021/07/22 09:48:35;;;;;;;7.28;5.85;;;;;;;26.25;43.81;98386.50;5091784;28;20482;-78
2021/07/22 09:51:00;;;;;;;9.40;4.90;;;;;;;26.24;43.66;98382.09;5092038;28;20060;-79
2021/07/22 09:53:27;;;;;;;8.35;4.82;;;;;;;26.52;41.65;98385.13;5091705;28;20147;-80
2021/07/22 09:55:55;;;;;;;9.45;5.90;;;;;;;25.86;42.53;98374.13;5093404;28;20855;-81
2021/07/22 09:58:21;;;;;;;10.15;5.78;;;;;;;25.99;41.79;98383.84;5092935;28;20078;-83
2021/07/22 10:00:48;;;;;;;6.00;5.10;;;;;;;26.31;41.04;98379.38;5094096;28;20111;-79
2021/07/22 10:03:15;;;;;;;7.63;5.43;;;;;;;26.75;40.54;98384.84;5093903;28;20051;-79
2021/07/22 10:05:56;;;;;;;7.05;4.88;;;;;;;26.56;40.87;98379.56;5093232;28;20024;-80
2021/07/22 10:08:24;;;;;;;7.10;4.70;;;;;;;26.14;39.44;98379.97;5093284;28;20032;-77
2021/07/22 10:10:51;;;;;;;9.90;5.45;;;;;;;26.10;40.02;98379.13;5092527;28;20052;-77
2021/07/22 10:13:21;;;;;;;6.20;4.82;;;;;;;26.47;39.42;98377.06;5093348;28;20039;-80
2021/07/22 10:15:48;;;;;;;4.72;4.15;;;;;;;26.28;39.39;98385.72;5090773;28;20496;-82
2021/07/22 10:18:14;;;;;;;8.27;4.38;;;;;;;27.04;37.82;98380.25;5090688;28;20122;-81
2021/07/22 10:20:41;;;;;;;8.85;5.47;;;;;;;26.77;38.31;98371.25;5092438;28;20174;-80
2021/07/22 10:23:07;;;;;;;6.60;4.82;;;;;;;26.67;39.00;98374.78;5091866;28;20023;-81
2021/07/22 10:25:34;;;;;;;6.90;4.90;;;;;;;26.44;39.21;98360.19;5091618;28;20027;-81
2021/07/22 10:28:00;;;;;;;8.32;4.50;;;;;;;26.71;38.69;98374.81;5093149;28;20038;-82
2021/07/22 10:30:26;;;;;;;12.45;5.22;;;;;;;26.14;39.86;98365.16;5092859;28;20060;-81
2021/07/22 10:32:54;;;;;;;12.80;5.07;;;;;;;25.96;40.43;98367.81;5092564;28;20055;-79
2021/07/22 10:35:26;;;;;;;6.75;4.95;;;;;;;26.06;40.25;98375.50;5095627;28;20044;-80
2021/07/22 10:38:04;;;;;;;6.82;4.20;;;;;;;26.16;40.55;98372.00;5093693;28;20578;-82
2021/07/22 10:40:50;;;;;;;6.28;4.50;;;;;;;26.20;40.06;98369.22;5071534;28;20029;-79
2021/07/22 10:43:36;;;;;;;6.57;4.97;;;;;;;25.88;40.82;98371.72;5077523;28;20043;-80
2021/07/22 10:46:04;;;;;;;10.43;4.95;;;;;;;25.70;40.17;98357.53;5091732;28;20126;-81
2021/07/22 10:48:29;;;;;;;6.32;4.43;;;;;;;25.84;40.09;98365.28;5090826;28;20016;-80
2021/07/22 10:50:55;;;;;;;7.97;5.20;;;;;;;26.05;39.79;98366.28;5091092;28;20515;-80
2021/07/22 10:53:39;;;;;;;8.27;4.97;;;;;;;25.90;40.82;98363.75;5092524;28;20024;-79
2021/07/22 10:56:06;;;;;;;10.05;5.13;;;;;;;25.90;40.07;98347.72;5092282;28;20073;-80
2021/07/22 10:58:33;;;;;;;12.63;4.90;;;;;;;26.90;39.25;98354.91;5091423;28;20032;-80
2021/07/22 11:00:59;;;;;;;11.57;4.40;;;;;;;26.86;38.24;98349.28;5092460;28;20020;-80
2021/07/22 11:03:36;;;;;;;6.55;5.10;;;;;;;26.92;38.35;98360.94;5092857;28;20024;-81
2021/07/22 11:06:06;;;;;;;8.25;5.70;;;;;;;26.65;38.70;98354.75;5092607;28;20472;-80
2021/07/22 11:08:39;;;;;;;8.80;4.95;;;;;;;26.59;39.31;98345.88;5090609;28;20450;-80
2021/07/22 11:11:15;;;;;;;6.28;4.85;;;;;;;26.41;39.25;98341.34;5092465;28;20468;-79
2021/07/22 11:13:47;;;;;;;;;;;;;;;26.63;38.22;98345.09;5091412;28;20032;-79
2021/07/22 11:16:26;;;;;;;6.60;5.10;;;;;;;27.02;38.69;98340.53;5091225;28;19912;-80
2021/07/22 11:18:52;;;;;;;7.85;5.00;;;;;;;26.82;38.50;98339.19;5091115;28;20028;-79
2021/07/22 11:21:36;;;;;;;6.43;5.43;;;;;;;27.28;38.21;98339.44;5093099;28;20070;-79
2021/07/22 11:24:16;;;;;;;7.38;5.45;;;;;;;27.57;36.93;98338.31;5090765;28;20092;-80
2021/07/22 11:26:41;;;;;;;7.63;5.55;;;;;;;28.95;34.98;98329.81;5092191;28;20028;-81